createdAt,value
2022-11-08T00:01:39.706Z,100929.00
2022-11-08T00:07:29.148Z,100935.97
2022-11-08T00:10:19.136Z,100934.19
2022-11-08T00:13:25.833Z,100940.31
2022-11-08T00:16:10.384Z,100936.81
2022-11-08T00:18:56.047Z,100932.41
2022-11-08T00:21:32.210Z,100934.16
2022-11-08T00:23:58.715Z,100946.25
2022-11-08T00:29:25.436Z,100946.22
2022-11-08T00:31:51.829Z,100948.72
2022-11-08T00:34:40.172Z,100959.06
2022-11-08T00:37:14.500Z,100948.69
2022-11-08T00:39:51.801Z,100943.53
2022-11-08T00:42:28.429Z,100950.41
2022-11-08T00:44:54.800Z,100933.97
2022-11-08T00:47:21.483Z,100947.81
2022-11-08T00:49:53.604Z,100941.72
2022-11-08T00:55:13.896Z,100952.09
2022-11-08T00:57:58.587Z,100950.34
2022-11-08T01:00:35.360Z,100956.44
2022-11-08T01:03:40.199Z,100940.91
2022-11-08T01:06:08.350Z,100946.00
2022-11-08T01:09:11.446Z,100945.13
2022-11-08T01:11:51.278Z,100944.25
2022-11-08T01:14:17.696Z,100947.75
2022-11-08T01:16:59.971Z,100945.13
2022-11-08T01:19:29.222Z,100945.16
2022-11-08T01:21:55.855Z,100946.72
2022-11-08T01:24:27.024Z,100952.78
2022-11-08T01:27:10.192Z,100951.72
2022-11-08T01:30:00.485Z,100953.59
2022-11-08T01:33:19.474Z,100947.53
2022-11-08T01:36:01.439Z,100945.75
2022-11-08T01:38:58.431Z,100942.09
2022-11-08T01:41:25.690Z,100943.06
2022-11-08T01:44:01.427Z,100941.34
2022-11-08T01:46:35.467Z,100944.00
2022-11-08T01:49:42.268Z,100936.13
2022-11-08T01:52:27.176Z,100931.84
2022-11-08T01:54:56.043Z,100931.78
2022-11-08T01:57:36.751Z,100928.31
2022-11-08T02:00:07.961Z,100930.88
2022-11-08T02:02:39.366Z,100924.84
2022-11-08T02:05:25.404Z,100926.63
2022-11-08T02:08:40.603Z,100928.47
2022-11-08T02:14:03.285Z,100924.00
2022-11-08T02:16:29.843Z,100914.47
2022-11-08T02:19:14.188Z,100916.34
2022-11-08T02:21:56.816Z,100921.63
2022-11-08T02:24:31.838Z,100917.22
2022-11-08T02:27:02.372Z,100917.31
2022-11-08T02:30:05.675Z,100912.94
2022-11-08T02:33:00.391Z,100930.31
2022-11-08T02:35:27.758Z,100917.34
2022-11-08T02:37:56.982Z,100924.25
2022-11-08T02:40:23.483Z,100925.13
2022-11-08T02:42:50.237Z,100922.53
2022-11-08T02:45:16.650Z,100923.38
2022-11-08T02:47:59.799Z,100919.06
2022-11-08T02:50:26.174Z,100926.69
2022-11-08T02:52:52.595Z,100931.25
2022-11-08T02:55:18.970Z,100921.59
2022-11-08T02:57:45.588Z,100927.69
2022-11-08T03:00:22.893Z,100923.41
2022-11-08T03:02:59.403Z,100921.69
2022-11-08T03:05:26.955Z,100920.91
2022-11-08T03:07:54.520Z,100922.53
2022-11-08T03:10:22.025Z,100918.22
2022-11-08T03:13:17.095Z,100915.59
2022-11-08T03:15:57.927Z,100916.50
2022-11-08T03:18:32.247Z,100921.63
2022-11-08T03:21:11.828Z,100918.88
2022-11-08T03:24:01.065Z,100907.75
2022-11-08T03:26:27.464Z,100901.53
2022-11-08T03:28:54.114Z,100905.78
2022-11-08T03:31:37.019Z,100910.19
2022-11-08T03:34:11.314Z,100911.66
2022-11-08T03:37:08.315Z,100912.59
2022-11-08T03:39:38.403Z,100914.31
2022-11-08T03:42:08.312Z,100910.84
2022-11-08T03:44:58.704Z,100913.44
2022-11-08T03:47:25.591Z,100911.66
2022-11-08T03:49:52.130Z,100916.78
2022-11-08T03:52:18.798Z,100905.53
2022-11-08T03:54:48.247Z,100914.16
2022-11-08T03:57:16.074Z,100911.56
2022-11-08T03:59:42.645Z,100914.09
2022-11-08T04:02:15.297Z,100918.41
2022-11-08T04:05:02.309Z,100923.47
2022-11-08T04:10:30.009Z,100906.94
2022-11-08T04:13:18.813Z,100909.38
2022-11-08T04:15:46.599Z,100920.75
2022-11-08T04:18:31.852Z,100909.47
2022-11-08T04:21:19.150Z,100906.13
2022-11-08T04:23:47.565Z,100907.81
2022-11-08T04:26:13.967Z,100901.47
2022-11-08T04:28:42.096Z,100900.66
2022-11-08T04:40:24.893Z,100903.25
2022-11-08T04:42:51.449Z,100905.84
2022-11-08T04:45:18.383Z,100900.47
2022-11-08T04:47:54.915Z,100901.38
2022-11-08T04:50:25.551Z,100900.41
2022-11-08T04:52:53.722Z,100889.88
2022-11-08T04:55:21.191Z,100904.69
2022-11-08T04:57:57.105Z,100895.94
2022-11-08T05:00:23.452Z,100907.88
2022-11-08T05:03:15.484Z,100891.72
2022-11-08T05:06:05.445Z,100900.97
2022-11-08T05:09:00.180Z,100897.31
2022-11-08T05:11:28.584Z,100899.19
2022-11-08T05:13:55.520Z,100908.28
2022-11-08T05:16:29.335Z,100892.31
2022-11-08T05:19:00.465Z,100895.50
2022-11-08T05:21:54.825Z,100901.53
2022-11-08T05:24:23.808Z,100890.81
2022-11-08T05:26:53.394Z,100890.06
2022-11-08T05:32:09.605Z,100890.69
2022-11-08T05:34:36.032Z,100896.88
2022-11-08T05:37:06.121Z,100886.78
2022-11-08T05:39:32.962Z,100883.81
2022-11-08T05:41:59.330Z,100890.50
2022-11-08T05:44:25.901Z,100881.19
2022-11-08T05:46:52.256Z,100880.28
2022-11-08T05:49:18.646Z,100882.72
2022-11-08T05:51:44.976Z,100881.56
2022-11-08T05:54:13.194Z,100880.00
2022-11-08T05:56:39.782Z,100877.72
2022-11-08T05:59:06.439Z,100879.41
2022-11-08T06:01:33.202Z,100879.16
2022-11-08T06:03:59.763Z,100869.03
2022-11-08T06:06:26.436Z,100875.19
2022-11-08T06:08:54.167Z,100874.31
2022-11-08T06:11:24.281Z,100872.56
2022-11-08T06:13:52.803Z,100873.56
2022-11-08T06:16:21.126Z,100873.56
2022-11-08T06:18:47.759Z,100876.19
2022-11-08T06:21:17.217Z,100877.13
2022-11-08T06:23:54.780Z,100870.78
2022-11-08T06:26:24.663Z,100869.19
2022-11-08T06:28:51.344Z,100869.19
2022-11-08T06:31:17.890Z,100870.56
2022-11-08T06:33:48.974Z,100866.63
2022-11-08T06:36:18.007Z,100862.13
2022-11-08T06:38:55.344Z,100865.16
2022-11-08T06:41:23.897Z,100858.47
2022-11-08T06:43:53.038Z,100863.78
2022-11-08T06:46:21.736Z,100868.09
2022-11-08T06:48:50.903Z,100869.66
2022-11-08T06:51:20.756Z,100874.72
2022-11-08T06:54:02.255Z,100867.25
2022-11-08T06:57:12.467Z,100866.13
2022-11-08T06:59:54.842Z,100859.34
2022-11-08T07:02:21.311Z,100877.41
2022-11-08T07:04:58.893Z,100865.44
2022-11-08T07:07:25.435Z,100862.53
2022-11-08T07:09:51.836Z,100868.69
2022-11-08T07:12:18.398Z,100871.88
2022-11-08T07:14:44.982Z,100872.38
2022-11-08T07:17:11.351Z,100863.63
2022-11-08T07:19:37.944Z,100870.34
2022-11-08T07:22:04.436Z,100861.28
2022-11-08T07:24:38.302Z,100859.84
2022-11-08T07:27:04.965Z,100860.63
2022-11-08T07:32:20.170Z,100860.69
2022-11-08T07:35:02.129Z,100851.19
2022-11-08T07:37:28.568Z,100842.97
2022-11-08T07:39:54.966Z,100851.00
2022-11-08T07:43:10.069Z,100845.78
2022-11-08T07:46:03.940Z,100845.09
2022-11-08T07:48:31.447Z,100844.31
2022-11-08T07:51:13.386Z,100841.81
2022-11-08T07:53:39.823Z,100847.13
2022-11-08T07:56:09.209Z,100840.13
2022-11-08T07:58:35.757Z,100848.72
2022-11-08T08:01:09.423Z,100842.72
2022-11-08T08:03:35.870Z,100845.34
2022-11-08T08:06:02.570Z,100849.19
2022-11-08T08:08:30.062Z,100848.22
2022-11-08T08:11:07.048Z,100844.00
2022-11-08T08:13:39.066Z,100844.91
2022-11-08T08:16:05.598Z,100852.75
2022-11-08T08:18:32.081Z,100852.84
2022-11-08T08:20:58.712Z,100849.38
2022-11-08T08:23:25.165Z,100847.75
2022-11-08T08:25:52.905Z,100854.75
2022-11-08T08:28:19.447Z,100847.00
2022-11-08T08:30:45.877Z,100840.00
2022-11-08T08:33:34.001Z,100840.84
2022-11-08T08:36:01.854Z,100847.06
2022-11-08T08:38:28.957Z,100834.03
2022-11-08T08:41:03.227Z,100832.34
2022-11-08T08:43:32.605Z,100824.66
2022-11-08T08:46:08.227Z,100835.09
2022-11-08T08:48:40.160Z,100824.75
2022-11-08T08:51:07.076Z,100812.72
2022-11-08T08:56:18.268Z,100798.09
2022-11-08T09:04:22.956Z,100799.97
2022-11-08T09:06:52.220Z,100803.63
2022-11-08T09:09:18.649Z,100800.13
2022-11-08T09:11:49.848Z,100800.16
2022-11-08T09:14:16.564Z,100790.72
2022-11-08T09:16:43.003Z,100784.72
2022-11-08T09:19:13.274Z,100783.88
2022-11-08T09:21:50.930Z,100782.22
2022-11-08T09:24:17.912Z,100778.75
2022-11-08T09:26:54.272Z,100783.19
2022-11-08T09:29:30.585Z,100774.50
2022-11-08T09:31:57.149Z,100782.38
2022-11-08T09:34:26.126Z,100790.19
2022-11-08T09:36:52.880Z,100789.38
2022-11-08T09:39:28.661Z,100775.47
2022-11-08T09:42:18.329Z,100783.44
2022-11-08T09:45:22.372Z,100775.66
2022-11-08T09:47:56.081Z,100776.47
2022-11-08T09:50:35.117Z,100775.59
2022-11-08T09:53:35.615Z,100768.69
2022-11-08T09:56:14.099Z,100767.91
2022-11-08T09:58:50.544Z,100768.84
2022-11-08T10:01:17.382Z,100769.81
2022-11-08T10:04:05.563Z,100756.81
2022-11-08T10:06:46.394Z,100757.72
2022-11-08T10:09:15.964Z,100747.41
2022-11-08T10:14:54.344Z,100731.00
2022-11-08T10:18:09.324Z,100720.66
2022-11-08T10:21:23.795Z,100727.63
2022-11-08T10:24:19.757Z,100713.84
2022-11-08T10:26:46.358Z,100703.44
2022-11-08T10:29:21.974Z,100702.63
2022-11-08T10:32:07.643Z,100686.22
2022-11-08T10:34:43.726Z,100688.88
2022-11-08T10:37:27.456Z,100676.78
2022-11-08T10:40:03.904Z,100672.47
2022-11-08T10:42:59.022Z,100666.41
2022-11-08T10:45:25.482Z,100666.44
2022-11-08T10:47:53.153Z,100662.97
2022-11-08T10:50:26.079Z,100664.72
2022-11-08T10:52:57.341Z,100669.94
2022-11-08T10:55:33.642Z,100670.81
2022-11-08T10:58:00.499Z,100669.06
2022-11-08T11:00:33.269Z,100669.09
2022-11-08T11:03:05.779Z,100662.16
2022-11-08T11:05:38.075Z,100663.03
2022-11-08T11:08:10.419Z,100658.72
2022-11-08T11:10:58.396Z,100650.94
2022-11-08T11:16:01.289Z,100657.03
2022-11-08T11:18:46.073Z,100647.47
2022-11-08T11:21:16.047Z,100650.94
2022-11-08T11:23:45.766Z,100648.38
2022-11-08T11:26:48.099Z,100649.25
2022-11-08T11:29:18.724Z,100654.44
2022-11-08T11:31:47.804Z,100648.38
2022-11-08T11:34:19.696Z,100656.19
2022-11-08T11:37:10.550Z,100652.72
2022-11-08T11:40:00.200Z,100640.56
2022-11-08T11:42:52.597Z,100637.09
2022-11-08T11:45:25.785Z,100628.47
2022-11-08T11:47:55.859Z,100635.38
2022-11-08T11:50:39.858Z,100613.69
2022-11-08T11:53:43.524Z,100605.03
2022-11-08T11:56:38.452Z,100596.38
2022-11-08T11:59:39.783Z,100598.09
2022-11-08T12:02:12.320Z,100598.09
2022-11-08T12:05:16.376Z,100585.09
2022-11-08T12:07:58.169Z,100580.75
2022-11-08T12:10:39.227Z,100579.00
2022-11-08T12:13:32.367Z,100576.41
2022-11-08T12:16:14.181Z,100575.53
2022-11-08T12:18:53.586Z,100568.63
2022-11-08T12:21:31.544Z,100574.66
2022-11-08T12:24:26.142Z,100579.03
2022-11-08T12:27:30.283Z,100570.38
2022-11-08T12:30:08.748Z,100566.91
2022-11-08T12:33:13.545Z,100575.53
2022-11-08T12:36:01.752Z,100576.41
2022-11-08T12:38:50.707Z,100574.69
2022-11-08T12:41:34.618Z,100578.16
2022-11-08T12:44:31.415Z,100560.84
2022-11-08T12:47:06.966Z,100556.44
2022-11-08T12:49:46.961Z,100559.94
2022-11-08T12:52:35.300Z,100561.66
2022-11-08T12:55:07.420Z,100553.84
2022-11-08T12:57:34.236Z,100550.38
2022-11-08T13:00:18.671Z,100552.94
2022-11-08T13:03:23.477Z,100559.03
2022-11-08T13:06:03.230Z,100558.16
2022-11-08T13:08:52.886Z,100559.88
2022-11-08T13:11:39.027Z,100553.81
2022-11-08T13:14:05.496Z,100540.81
2022-11-08T13:16:39.444Z,100551.19
2022-11-08T13:19:06.686Z,100551.16
2022-11-08T13:21:41.176Z,100544.22
2022-11-08T13:24:37.906Z,100559.84
2022-11-08T13:27:21.409Z,100537.28
2022-11-08T13:29:47.891Z,100539.03
2022-11-08T13:32:43.831Z,100554.66
2022-11-08T13:35:37.557Z,100532.13
2022-11-08T13:38:23.550Z,100526.06
2022-11-08T13:41:11.971Z,100521.75
2022-11-08T13:43:39.567Z,100537.31
2022-11-08T13:46:30.297Z,100537.34
2022-11-08T13:49:18.442Z,100525.25
2022-11-08T13:51:46.041Z,100524.34
2022-11-08T13:54:21.551Z,100522.59
2022-11-08T13:56:56.404Z,100517.44
2022-11-08T13:59:32.090Z,100519.16
2022-11-08T14:01:59.238Z,100513.09
2022-11-08T14:04:29.484Z,100517.44
2022-11-08T14:07:04.945Z,100522.59
2022-11-08T14:09:52.914Z,100525.22
2022-11-08T14:12:34.554Z,100530.44
2022-11-08T14:15:18.807Z,100511.41
2022-11-08T14:18:11.248Z,100508.72
2022-11-08T14:20:48.076Z,100517.44
2022-11-08T14:23:28.051Z,100512.25
2022-11-08T14:25:55.994Z,100505.28
2022-11-08T14:28:26.059Z,100507.88
2022-11-08T14:30:52.900Z,100519.16
2022-11-08T14:33:21.250Z,100517.41
2022-11-08T14:36:02.151Z,100513.91
2022-11-08T14:38:32.308Z,100515.69
2022-11-08T14:41:01.432Z,100506.19
2022-11-08T14:43:29.575Z,100513.06
2022-11-08T14:45:59.451Z,100517.41
2022-11-08T14:48:31.162Z,100502.69
2022-11-08T14:51:01.825Z,100500.09
2022-11-08T14:53:46.772Z,100498.31
2022-11-08T14:56:28.664Z,100498.31
2022-11-08T14:58:59.395Z,100493.09
2022-11-08T15:01:26.955Z,100493.09
2022-11-08T15:04:08.649Z,100486.22
2022-11-08T15:06:42.997Z,100482.75
2022-11-08T15:09:21.551Z,100474.09
2022-11-08T15:12:12.857Z,100468.00
2022-11-08T15:15:05.971Z,100474.09
2022-11-08T15:17:58.845Z,100479.34
2022-11-08T15:20:25.428Z,100482.75
2022-11-08T15:22:55.539Z,100488.00
2022-11-08T15:25:37.136Z,100481.03
2022-11-08T15:28:16.102Z,100487.97
2022-11-08T15:30:43.954Z,100483.63
2022-11-08T15:33:33.270Z,100476.75
2022-11-08T15:36:00.086Z,100472.41
2022-11-08T15:38:36.464Z,100481.09
2022-11-08T15:41:05.358Z,100482.81
2022-11-08T15:43:32.168Z,100475.91
2022-11-08T15:46:03.616Z,100478.50
2022-11-08T15:48:30.187Z,100475.03
2022-11-08T15:50:56.916Z,100470.75
2022-11-08T15:53:25.134Z,100467.28
2022-11-08T15:56:02.142Z,100473.34
2022-11-08T15:58:31.511Z,100475.94
2022-11-08T16:01:00.748Z,100469.81
2022-11-08T16:03:28.277Z,100471.59
2022-11-08T16:06:03.989Z,100482.00
2022-11-08T16:08:30.394Z,100475.91
2022-11-08T16:11:01.192Z,100467.25
2022-11-08T16:13:30.384Z,100471.63
2022-11-08T16:15:58.264Z,100468.13
2022-11-08T16:18:24.979Z,100456.88
2022-11-08T16:20:51.353Z,100454.25
2022-11-08T16:23:18.253Z,100452.50
2022-11-08T16:25:47.858Z,100435.19
2022-11-08T16:28:27.128Z,100429.13
2022-11-08T16:30:53.596Z,100436.06
2022-11-08T16:33:25.291Z,100444.72
2022-11-08T16:36:15.140Z,100444.72
2022-11-08T16:38:57.754Z,100449.94
2022-11-08T16:41:25.449Z,100451.69
2022-11-08T16:43:52.139Z,100456.00
2022-11-08T16:46:22.882Z,100457.72
2022-11-08T16:48:59.197Z,100463.81
2022-11-08T16:51:25.763Z,100463.81
2022-11-08T16:53:53.359Z,100463.81
2022-11-08T16:56:19.824Z,100455.13
2022-11-08T16:58:46.265Z,100460.31
2022-11-08T17:01:32.919Z,100472.47
2022-11-08T17:03:59.379Z,100466.38
2022-11-08T17:06:25.799Z,100483.72
2022-11-08T17:08:52.786Z,100481.09
2022-11-08T17:11:21.932Z,100490.66
2022-11-08T17:13:49.039Z,100489.78
2022-11-08T17:16:16.321Z,100475.06
2022-11-08T17:18:47.430Z,100486.34
2022-11-08T17:21:43.107Z,100482.00
2022-11-08T17:24:03.013Z,100482.00
2022-11-08T17:26:29.396Z,100483.72
2022-11-08T17:28:56.417Z,100485.44
2022-11-08T17:31:22.761Z,100485.44
2022-11-08T17:33:49.509Z,100490.66
2022-11-08T17:36:15.846Z,100490.69
2022-11-08T17:38:42.428Z,100489.78
2022-11-08T17:41:13.188Z,100482.88
2022-11-08T17:43:39.947Z,100488.06
2022-11-08T17:46:07.013Z,100488.06
2022-11-08T17:48:34.306Z,100491.50
2022-11-08T17:51:00.824Z,100481.13
2022-11-08T17:53:27.262Z,100486.34
2022-11-08T17:55:57.254Z,100501.94
2022-11-08T17:58:26.038Z,100498.47
2022-11-08T18:00:57.809Z,100495.00
2022-11-08T18:03:26.454Z,100503.66
2022-11-08T18:05:58.096Z,100501.06
2022-11-08T18:11:12.521Z,100492.38
2022-11-08T18:13:39.272Z,100503.66
2022-11-08T18:16:11.969Z,100496.72
2022-11-08T18:18:41.789Z,100481.13
2022-11-08T18:21:09.154Z,100488.91
2022-11-08T18:23:47.210Z,100480.28
2022-11-08T18:26:16.535Z,100491.53
2022-11-08T18:28:44.970Z,100488.06
2022-11-08T18:31:15.124Z,100497.59
2022-11-08T18:33:42.497Z,100501.94
2022-11-08T18:36:11.925Z,100490.66
2022-11-08T18:38:57.883Z,100493.28
2022-11-08T18:41:27.146Z,100486.34
2022-11-08T18:43:54.295Z,100490.69
2022-11-08T18:46:26.490Z,100485.47
2022-11-08T18:48:53.549Z,100493.28
2022-11-08T18:51:24.276Z,100486.34
2022-11-08T18:53:54.175Z,100482.00
2022-11-08T18:56:23.364Z,100488.06
2022-11-08T18:58:50.705Z,100495.84
2022-11-08T19:01:17.679Z,100487.19
2022-11-08T19:03:44.303Z,100486.31
2022-11-08T19:06:25.597Z,100485.47
2022-11-08T19:08:55.774Z,100488.09
2022-11-08T19:11:27.994Z,100480.28
2022-11-08T19:13:54.430Z,100495.88
2022-11-08T19:16:21.073Z,100485.47
2022-11-08T19:18:49.673Z,100488.94
2022-11-08T19:21:21.747Z,100494.97
2022-11-08T19:23:50.224Z,100495.84
2022-11-08T19:26:20.093Z,100484.56
2022-11-08T19:28:54.816Z,100494.13
2022-11-08T19:31:24.247Z,100498.47
2022-11-08T19:33:57.046Z,100494.09
2022-11-08T19:36:40.316Z,100490.66
2022-11-08T19:39:06.734Z,100484.59
2022-11-08T19:41:33.234Z,100480.28
2022-11-08T19:43:59.877Z,100480.28
2022-11-08T19:46:32.403Z,100485.47
2022-11-08T19:49:01.875Z,100488.06
2022-11-08T19:51:30.967Z,100486.34
2022-11-08T19:53:59.950Z,100486.34
2022-11-08T19:56:43.769Z,100488.06
2022-11-08T19:59:13.326Z,100485.47
2022-11-08T20:01:42.793Z,100494.13
2022-11-08T20:04:11.302Z,100494.97
2022-11-08T20:06:38.576Z,100492.38
2022-11-08T20:09:09.958Z,100507.13
2022-11-08T20:11:40.205Z,100514.91
2022-11-08T20:14:07.829Z,100505.38
2022-11-08T20:16:39.998Z,100517.53
2022-11-08T20:19:16.788Z,100508.88
2022-11-08T20:21:45.962Z,100511.47
2022-11-08T20:24:18.765Z,100511.44
2022-11-08T20:26:51.367Z,100503.66
2022-11-08T20:29:18.589Z,100517.53
2022-11-08T20:31:45.793Z,100513.19
2022-11-08T20:34:26.793Z,100513.19
2022-11-08T20:36:53.504Z,100511.44
2022-11-08T20:39:20.376Z,100527.06
2022-11-08T20:41:56.093Z,100521.00
2022-11-08T20:44:24.057Z,100515.81
2022-11-08T20:46:51.055Z,100514.06
2022-11-08T20:49:17.519Z,100515.81
2022-11-08T20:51:54.464Z,100513.19
2022-11-08T20:54:20.863Z,100506.25
2022-11-08T20:56:56.428Z,100511.47
2022-11-08T20:59:25.395Z,100503.66
2022-11-08T21:01:54.925Z,100505.41
2022-11-08T21:04:21.472Z,100521.88
2022-11-08T21:06:47.868Z,100516.66
2022-11-08T21:09:36.278Z,100520.13
2022-11-08T21:12:18.862Z,100517.53
2022-11-08T21:14:50.660Z,100519.25
2022-11-08T21:17:22.254Z,100513.22
2022-11-08T21:19:52.944Z,100515.81
2022-11-08T21:22:19.510Z,100511.47
2022-11-08T21:24:48.030Z,100514.94
2022-11-08T21:27:15.487Z,100521.00
2022-11-08T21:29:45.385Z,100521.88
2022-11-08T21:32:11.819Z,100525.31
2022-11-08T21:34:39.701Z,100530.50
2022-11-08T21:37:07.851Z,100520.97
2022-11-08T21:39:34.231Z,100520.13
2022-11-08T21:42:00.581Z,100521.88
2022-11-08T21:44:27.053Z,100526.19
2022-11-08T21:46:53.389Z,100520.97
2022-11-08T21:49:19.811Z,100527.03
2022-11-08T21:51:46.152Z,100532.22
2022-11-08T21:54:12.586Z,100523.59
2022-11-08T21:56:49.866Z,100513.19
2022-11-08T21:59:16.272Z,100505.41
2022-11-08T22:01:42.765Z,100520.13
2022-11-08T22:04:09.256Z,100513.19
2022-11-08T22:06:36.242Z,100516.63
2022-11-08T22:09:02.830Z,100512.28
2022-11-08T22:11:29.181Z,100523.53
2022-11-08T22:13:58.496Z,100522.69
2022-11-08T22:16:30.433Z,100522.66
2022-11-08T22:19:04.627Z,100529.59
2022-11-08T22:21:42.872Z,100527.88
2022-11-08T22:24:16.993Z,100527.88
2022-11-08T22:26:53.107Z,100520.06
2022-11-08T22:29:20.209Z,100519.16
2022-11-08T22:31:47.140Z,100527.00
2022-11-08T22:34:13.825Z,100521.81
2022-11-08T22:36:45.022Z,100526.94
2022-11-08T22:39:17.990Z,100534.75
2022-11-08T22:41:47.875Z,100529.56
2022-11-08T22:44:15.145Z,100531.22
2022-11-08T22:46:42.835Z,100526.09
2022-11-08T22:49:10.025Z,100522.66
2022-11-08T22:51:36.848Z,100521.78
2022-11-08T22:54:09.183Z,100520.94
2022-11-08T22:56:46.425Z,100516.59
2022-11-08T22:59:12.940Z,100517.41
2022-11-08T23:01:39.313Z,100517.47
2022-11-08T23:04:05.910Z,100506.22
2022-11-08T23:06:32.553Z,100511.41
2022-11-08T23:08:59.222Z,100508.78
2022-11-08T23:11:44.065Z,100507.09
2022-11-08T23:14:35.488Z,100514.84
2022-11-08T23:17:03.240Z,100510.47
2022-11-08T23:19:48.540Z,100518.31
2022-11-08T23:22:35.401Z,100514.78
2022-11-08T23:25:01.984Z,100513.88
2022-11-08T23:27:46.967Z,100522.59
2022-11-08T23:30:34.621Z,100531.28
2022-11-08T23:33:01.347Z,100532.97
2022-11-08T23:35:28.063Z,100532.09
2022-11-08T23:37:55.076Z,100540.72
2022-11-08T23:40:40.822Z,100527.78
2022-11-08T23:43:32.784Z,100527.78
2022-11-08T23:46:06.362Z,100528.69
2022-11-08T23:48:32.827Z,100529.53
2022-11-08T23:50:59.409Z,100536.44
2022-11-08T23:53:26.126Z,100534.72
2022-11-08T23:55:54.042Z,100529.53
2022-11-08T23:58:20.594Z,100524.34
